PWSweather.com
Personal Weather Stations
Station Observations
KFLPOINC2
Poinciana Kissimmee, Poinciana, FL 34758

Poinciana KissimmeePoinciana, FL 34758

Lat: 28.161417, Lon: -81.477557

Elevation: 88

Station Type: Ambient Weather WS 2080

High Low Average
Temperature 76.5°F24.7°F 73.6°F23.1°F 74.8°F23.8°F
Dew Point 72.9°F22.7°F 70.1°F21.2°F 71.3°F21.8°F
Winds 6.0 mph SE9.7 mph SE Calm Calm 2.6 mph 4.2 mph
Wind Gusts 19.0 mph30.6 mph 2.2 mph3.5 mph 6.2 mph10.0 mph
Humidity 93% 84% 89%
Pressure 29.92 in1013.20 in 29.92 in1013.20 in -
Precipitation 2.66 in67.60 in - -
Hour Temp Dew Point Humidity Winds Wind Gusts Pressure Precip Precip Rate Daily Precip Total
12:00 AM 75.9°F24.4°C 71.5°F21.9°C 86% 5.4 mph SE8.7 kmh SE 8.3 mph13.4 kmh 29.92 in1013.2 mb 0.00 in0.0 mm 0.00 in0.0 mm 0.00 in0.0 mm
12:15 AM 75.6°F24.2°C 71.8°F22.1°C 88% 5.4 mph SE8.7 kmh SE 9.8 mph15.8 kmh 29.92 in1013.2 mb 0.00 in0.0 mm 0.00 in0.0 mm 0.00 in0.0 mm
12:30 AM 75.6°F24.2°C 71.8°F22.1°C 88% 5.4 mph SE8.7 kmh SE 9.8 mph15.8 kmh 29.92 in1013.2 mb 0.00 in0.0 mm 0.00 in0.0 mm 0.00 in0.0 mm
12:45 AM 75.9°F24.4°C 72.2°F22.3°C 88% 5.4 mph SE8.7 kmh SE 9.2 mph14.8 kmh 29.92 in1013.2 mb 0.00 in0.0 mm 0.00 in0.0 mm 0.00 in0.0 mm
01:00 AM 75.9°F24.4°C 71.8°F22.1°C 87% 6.0 mph SE9.7 kmh SE 9.8 mph15.8 kmh 29.92 in1013.2 mb 0.00 in0.0 mm 0.00 in0.0 mm 0.00 in0.0 mm
01:15 AM 76.1°F24.5°C 71.7°F22.1°C 86% 5.4 mph SE8.7 kmh SE 9.8 mph15.8 kmh 29.92 in1013.2 mb 0.00 in0.0 mm 0.00 in0.0 mm 0.00 in0.0 mm
01:30 AM 76.3°F24.6°C 71.8°F22.1°C 86% 5.4 mph SE8.7 kmh SE 9.8 mph15.8 kmh 29.92 in1013.2 mb 0.00 in0.0 mm 0.00 in0.0 mm 0.00 in0.0 mm
01:45 AM 76.1°F24.5°C 71.7°F22.1°C 86% 3.8 mph SE6.1 kmh SE 8.3 mph13.4 kmh 29.92 in1013.2 mb 0.00 in0.0 mm 0.00 in0.0 mm 0.00 in0.0 mm
02:00 AM 75.0°F23.9°C 71.9°F22.2°C 90% 4.5 mph SE7.2 kmh SE 9.2 mph14.8 kmh 29.92 in1013.2 mb 0.13 in3.3 mm 0.17 in4.3 mm 0.13 in3.3 mm
02:15 AM 74.8°F23.8°C 72.4°F22.4°C 92% 3.1 mph SE5.0 kmh SE 6.9 mph11.1 kmh 29.92 in1013.2 mb 0.17 in4.3 mm 0.16 in4.1 mm 0.17 in4.3 mm
02:30 AM 75.0°F23.9°C 72.6°F22.6°C 92% 0.7 mph SE1.1 kmh SE 3.8 mph6.1 kmh 29.92 in1013.2 mb 0.17 in4.3 mm 0.00 in0.0 mm 0.17 in4.3 mm
02:45 AM 75.0°F23.9°C 72.9°F22.7°C 93% 1.6 mph SE2.6 kmh SE 3.8 mph6.1 kmh 29.92 in1013.2 mb 0.17 in4.3 mm 0.00 in0.0 mm 0.17 in4.3 mm
03:00 AM 75.4°F24.1°C 72.9°F22.7°C 92% 3.1 mph SE5.0 kmh SE 5.4 mph8.7 kmh 29.92 in1013.2 mb 0.04 in1.0 mm 0.00 in0.0 mm 0.17 in4.3 mm
03:15 AM 75.6°F24.2°C 72.8°F22.7°C 91% 4.5 mph SE7.2 kmh SE 7.6 mph12.2 kmh 29.92 in1013.2 mb 0.00 in0.0 mm 0.00 in0.0 mm 0.17 in4.3 mm
03:30 AM 75.6°F24.2°C 72.8°F22.7°C 91% 3.1 mph SE5.0 kmh SE 5.4 mph8.7 kmh 29.92 in1013.2 mb 0.00 in0.0 mm 0.00 in0.0 mm 0.17 in4.3 mm
03:45 AM 75.6°F24.2°C 72.8°F22.7°C 91% 3.1 mph SE5.0 kmh SE 4.5 mph7.2 kmh 29.92 in1013.2 mb 0.00 in0.0 mm 0.00 in0.0 mm 0.17 in4.3 mm
04:00 AM 75.6°F24.2°C 72.8°F22.7°C 91% 3.1 mph SE5.0 kmh SE 6.9 mph11.1 kmh 29.92 in1013.2 mb 0.00 in0.0 mm 0.00 in0.0 mm 0.17 in4.3 mm
04:15 AM 75.9°F24.4°C 72.8°F22.7°C 90% 3.8 mph SE6.1 kmh SE 6.9 mph11.1 kmh 29.92 in1013.2 mb 0.00 in0.0 mm 0.00 in0.0 mm 0.17 in4.3 mm
04:30 AM 76.1°F24.5°C 72.7°F22.6°C 89% 3.8 mph SE6.1 kmh SE 6.0 mph9.7 kmh 29.92 in1013.2 mb 0.01 in0.3 mm 0.04 in1.0 mm 0.18 in4.6 mm
04:45 AM 76.1°F24.5°C 72.7°F22.6°C 89% 3.8 mph SE6.1 kmh SE 7.6 mph12.2 kmh 29.92 in1013.2 mb 0.01 in0.3 mm 0.00 in0.0 mm 0.18 in4.6 mm
05:00 AM 76.1°F24.5°C 72.3°F22.4°C 88% Calm Calm 3.8 mph6.1 kmh 29.92 in1013.2 mb 0.01 in0.3 mm 0.00 in0.0 mm 0.18 in4.6 mm
05:15 AM 75.9°F24.4°C 72.2°F22.3°C 88% 2.2 mph SE3.5 kmh SE 3.8 mph6.1 kmh 29.92 in1013.2 mb 0.01 in0.3 mm 0.00 in0.0 mm 0.18 in4.6 mm
05:30 AM 75.6°F24.2°C 72.1°F22.3°C 89% 2.2 mph SE3.5 kmh SE 3.8 mph6.1 kmh 29.92 in1013.2 mb 0.00 in0.0 mm 0.00 in0.0 mm 0.18 in4.6 mm
05:45 AM 75.6°F24.2°C 72.1°F22.3°C 89% 3.1 mph SE5.0 kmh SE 4.5 mph7.2 kmh 29.92 in1013.2 mb 0.00 in0.0 mm 0.00 in0.0 mm 0.18 in4.6 mm
06:00 AM 75.4°F24.1°C 72.0°F22.2°C 89% 3.1 mph SE5.0 kmh SE 6.0 mph9.7 kmh 29.92 in1013.2 mb 0.00 in0.0 mm 0.00 in0.0 mm 0.18 in4.6 mm
06:15 AM 75.2°F24.0°C 71.1°F21.7°C 87% 1.6 mph SE2.6 kmh SE 6.9 mph11.1 kmh 29.92 in1013.2 mb 0.00 in0.0 mm 0.00 in0.0 mm 0.18 in4.6 mm
06:30 AM 75.0°F23.9°C 71.3°F21.8°C 88% 1.6 mph SE2.6 kmh SE 5.4 mph8.7 kmh 29.92 in1013.2 mb 0.00 in0.0 mm 0.00 in0.0 mm 0.18 in4.6 mm
06:45 AM 75.0°F23.9°C 71.3°F21.8°C 88% 2.2 mph SE3.5 kmh SE 5.4 mph8.7 kmh 29.92 in1013.2 mb 0.00 in0.0 mm 0.00 in0.0 mm 0.18 in4.6 mm
07:00 AM 75.2°F24.0°C 70.8°F21.6°C 86% 1.6 mph SE2.6 kmh SE 5.4 mph8.7 kmh 29.92 in1013.2 mb 0.00 in0.0 mm 0.00 in0.0 mm 0.18 in4.6 mm
07:03 AM 75.2°F24.0°C 70.7°F21.5°C 86% 1.6 mph SE2.6 kmh SE 2.2 mph3.5 kmh 29.92 in1013.2 mb 0.00 in0.0 mm 0.00 in0.0 mm 0.18 in4.6 mm
07:15 AM 75.2°F24.0°C 70.4°F21.3°C 85% 3.1 mph SE5.0 kmh SE 5.4 mph8.7 kmh 29.92 in1013.2 mb 0.00 in0.0 mm 0.00 in0.0 mm 0.18 in4.6 mm
07:30 AM 75.2°F24.0°C 70.1°F21.2°C 84% 1.6 mph SE2.6 kmh SE 3.8 mph6.1 kmh 29.92 in1013.2 mb 0.00 in0.0 mm 0.00 in0.0 mm 0.18 in4.6 mm
07:45 AM 75.2°F24.0°C 70.4°F21.3°C 85% 0.7 mph SE1.1 kmh SE 3.8 mph6.1 kmh 29.92 in1013.2 mb 0.00 in0.0 mm 0.00 in0.0 mm 0.18 in4.6 mm
08:00 AM 75.2°F24.0°C 70.4°F21.3°C 85% 0.7 mph SE1.1 kmh SE 3.8 mph6.1 kmh 29.92 in1013.2 mb 0.00 in0.0 mm 0.00 in0.0 mm 0.18 in4.6 mm
08:15 AM 75.2°F24.0°C 70.4°F21.3°C 85% 0.7 mph SE1.1 kmh SE 3.8 mph6.1 kmh 29.92 in1013.2 mb 0.00 in0.0 mm 0.00 in0.0 mm 0.18 in4.6 mm
08:30 AM 75.2°F24.0°C 70.4°F21.3°C 85% 0.7 mph SE1.1 kmh SE 3.8 mph6.1 kmh 29.92 in1013.2 mb 0.00 in0.0 mm 0.00 in0.0 mm 0.18 in4.6 mm
08:45 AM 75.2°F24.0°C 70.4°F21.3°C 85% 0.7 mph SE1.1 kmh SE 3.8 mph6.1 kmh 29.92 in1013.2 mb 0.00 in0.0 mm 0.00 in0.0 mm 0.18 in4.6 mm
09:00 AM 75.2°F24.0°C 70.4°F21.3°C 85% 0.7 mph SE1.1 kmh SE 3.8 mph6.1 kmh 29.92 in1013.2 mb 0.00 in0.0 mm 0.00 in0.0 mm 0.18 in4.6 mm
09:15 AM 75.2°F24.0°C 70.4°F21.3°C 85% 0.7 mph SE1.1 kmh SE 3.8 mph6.1 kmh 29.92 in1013.2 mb 0.00 in0.0 mm 0.00 in0.0 mm 0.18 in4.6 mm
09:30 AM 75.2°F24.0°C 70.4°F21.3°C 85% 0.7 mph SE1.1 kmh SE 3.8 mph6.1 kmh 29.92 in1013.2 mb 0.00 in0.0 mm 0.00 in0.0 mm 0.18 in4.6 mm
09:45 AM 75.2°F24.0°C 70.4°F21.3°C 85% 0.7 mph SE1.1 kmh SE 3.8 mph6.1 kmh 29.92 in1013.2 mb 0.00 in0.0 mm 0.00 in0.0 mm 0.18 in4.6 mm
10:00 AM 75.2°F24.0°C 70.4°F21.3°C 85% 0.7 mph SE1.1 kmh SE 3.8 mph6.1 kmh 29.92 in1013.2 mb 0.00 in0.0 mm 0.00 in0.0 mm 0.18 in4.6 mm
10:15 AM 75.2°F24.0°C 70.4°F21.3°C 85% 0.7 mph SE1.1 kmh SE 3.8 mph6.1 kmh 29.92 in1013.2 mb 0.00 in0.0 mm 0.00 in0.0 mm 0.18 in4.6 mm
10:30 AM 75.2°F24.0°C 70.4°F21.3°C 85% 0.7 mph SE1.1 kmh SE 3.8 mph6.1 kmh 29.92 in1013.2 mb 0.00 in0.0 mm 0.00 in0.0 mm 0.18 in4.6 mm
10:45 AM 75.2°F24.0°C 70.4°F21.3°C 85% 0.7 mph SE1.1 kmh SE 3.8 mph6.1 kmh 29.92 in1013.2 mb 0.00 in0.0 mm 0.00 in0.0 mm 0.18 in4.6 mm
11:00 AM 75.2°F24.0°C 70.4°F21.3°C 85% 0.7 mph SE1.1 kmh SE 3.8 mph6.1 kmh 29.92 in1013.2 mb 0.00 in0.0 mm 0.00 in0.0 mm 0.18 in4.6 mm
11:15 AM 75.2°F24.0°C 70.4°F21.3°C 85% 0.7 mph SE1.1 kmh SE 3.8 mph6.1 kmh 29.92 in1013.2 mb 0.00 in0.0 mm 0.00 in0.0 mm 0.18 in4.6 mm
11:30 AM 75.2°F24.0°C 70.4°F21.3°C 85% 0.7 mph SE1.1 kmh SE 3.8 mph6.1 kmh 29.92 in1013.2 mb 0.00 in0.0 mm 0.00 in0.0 mm 0.18 in4.6 mm
11:45 AM 75.2°F24.0°C 70.4°F21.3°C 85% 0.7 mph SE1.1 kmh SE 3.8 mph6.1 kmh 29.92 in1013.2 mb 0.00 in0.0 mm 0.00 in0.0 mm 0.18 in4.6 mm
12:00 PM 75.2°F24.0°C 70.4°F21.3°C 85% 0.7 mph SE1.1 kmh SE 3.8 mph6.1 kmh 29.92 in1013.2 mb 0.00 in0.0 mm 0.00 in0.0 mm 0.18 in4.6 mm
12:15 PM 75.2°F24.0°C 70.4°F21.3°C 85% 0.7 mph SE1.1 kmh SE 3.8 mph6.1 kmh 29.92 in1013.2 mb 0.00 in0.0 mm 0.00 in0.0 mm 0.18 in4.6 mm
12:30 PM 75.2°F24.0°C 70.4°F21.3°C 85% 0.7 mph SE1.1 kmh SE 3.8 mph6.1 kmh 29.92 in1013.2 mb 0.00 in0.0 mm 0.00 in0.0 mm 0.18 in4.6 mm
12:45 PM 75.2°F24.0°C 70.4°F21.3°C 85% 0.7 mph SE1.1 kmh SE 3.8 mph6.1 kmh 29.92 in1013.2 mb 0.00 in0.0 mm 0.00 in0.0 mm 0.18 in4.6 mm
01:00 PM 75.2°F24.0°C 70.4°F21.3°C 85% 0.7 mph SE1.1 kmh SE 3.8 mph6.1 kmh 29.92 in1013.2 mb 0.00 in0.0 mm 0.00 in0.0 mm 0.18 in4.6 mm
01:15 PM 75.2°F24.0°C 70.4°F21.3°C 85% 0.7 mph SE1.1 kmh SE 3.8 mph6.1 kmh 29.92 in1013.2 mb 0.00 in0.0 mm 0.00 in0.0 mm 0.18 in4.6 mm
01:30 PM 75.2°F24.0°C 70.4°F21.3°C 85% 0.7 mph SE1.1 kmh SE 3.8 mph6.1 kmh 29.92 in1013.2 mb 0.00 in0.0 mm 0.00 in0.0 mm 0.18 in4.6 mm
01:45 PM 75.2°F24.0°C 70.4°F21.3°C 85% 0.7 mph SE1.1 kmh SE 3.8 mph6.1 kmh 29.92 in1013.2 mb 0.00 in0.0 mm 0.00 in0.0 mm 0.18 in4.6 mm
02:00 PM 75.2°F24.0°C 70.4°F21.3°C 85% 0.7 mph SE1.1 kmh SE 3.8 mph6.1 kmh 29.92 in1013.2 mb 0.00 in0.0 mm 0.00 in0.0 mm 0.18 in4.6 mm
02:15 PM 76.5°F24.7°C 71.3°F21.8°C 84% 5.4 mph SE8.7 kmh SE 19.0 mph30.6 kmh 29.92 in1013.2 mb 0.14 in3.6 mm 0.56 in14.2 mm 0.32 in8.1 mm
02:30 PM 74.5°F23.6°C 70.4°F21.3°C 87% Calm Calm 6.9 mph11.1 kmh 29.92 in1013.2 mb 0.20 in5.1 mm 0.24 in6.1 mm 0.38 in9.7 mm
02:45 PM 74.3°F23.5°C 70.9°F21.6°C 89% 1.6 mph SE2.6 kmh SE 5.4 mph8.7 kmh 29.92 in1013.2 mb 0.20 in5.1 mm 0.00 in0.0 mm 0.38 in9.7 mm
03:00 PM 74.1°F23.4°C 70.7°F21.5°C 89% Calm Calm 4.5 mph7.2 kmh 29.92 in1013.2 mb 0.13 in3.3 mm 0.00 in0.0 mm 0.38 in9.7 mm
03:15 PM 74.1°F23.4°C 70.7°F21.5°C 89% 2.2 mph SE3.5 kmh SE 4.5 mph7.2 kmh 29.92 in1013.2 mb 0.09 in2.3 mm 0.00 in0.0 mm 0.41 in10.4 mm
03:30 PM 74.3°F23.5°C 71.2°F21.8°C 90% 1.6 mph SE2.6 kmh SE 6.9 mph11.1 kmh 29.92 in1013.2 mb 0.07 in1.8 mm 0.00 in0.0 mm 0.45 in11.4 mm
03:45 PM 74.5°F23.6°C 71.7°F22.1°C 91% 4.5 mph SE7.2 kmh SE 7.6 mph12.2 kmh 29.92 in1013.2 mb 0.07 in1.8 mm 0.00 in0.0 mm 0.45 in11.4 mm
04:00 PM 73.9°F23.3°C 71.2°F21.8°C 91% 3.1 mph SE5.0 kmh SE 8.3 mph13.4 kmh 29.92 in1013.2 mb 0.14 in3.6 mm 0.09 in2.3 mm 0.52 in13.2 mm
04:15 PM 73.6°F23.1°C 71.2°F21.8°C 92% 2.2 mph SE3.5 kmh SE 5.4 mph8.7 kmh 29.92 in1013.2 mb 0.17 in4.3 mm 0.12 in3.0 mm 0.58 in14.7 mm
04:30 PM 73.8°F23.2°C 71.3°F21.8°C 92% 3.1 mph SE5.0 kmh SE 8.3 mph13.4 kmh 29.92 in1013.2 mb 0.22 in5.6 mm 0.20 in5.1 mm 0.67 in17.0 mm
04:45 PM 73.8°F23.2°C 71.3°F21.8°C 92% 3.8 mph SE6.1 kmh SE 7.6 mph12.2 kmh 29.92 in1013.2 mb 0.24 in6.1 mm 0.08 in2.0 mm 0.69 in17.5 mm
05:00 PM 73.8°F23.2°C 71.3°F21.8°C 92% 3.8 mph SE6.1 kmh SE 7.6 mph12.2 kmh 29.92 in1013.2 mb 0.17 in4.3 mm 0.00 in0.0 mm 0.69 in17.5 mm
05:15 PM 73.8°F23.2°C 71.3°F21.8°C 92% 3.8 mph SE6.1 kmh SE 7.6 mph12.2 kmh 29.92 in1013.2 mb 0.09 in2.3 mm 0.00 in0.0 mm 0.69 in17.5 mm
05:30 PM 73.8°F23.2°C 71.3°F21.8°C 92% 3.8 mph SE6.1 kmh SE 7.6 mph12.2 kmh 29.92 in1013.2 mb 0.01 in0.3 mm 0.00 in0.0 mm 0.69 in17.5 mm
05:45 PM 73.8°F23.2°C 71.3°F21.8°C 92% 3.8 mph SE6.1 kmh SE 7.6 mph12.2 kmh 29.92 in1013.2 mb 0.00 in0.0 mm 0.00 in0.0 mm 0.69 in17.5 mm
06:00 PM 73.8°F23.2°C 71.3°F21.8°C 92% 3.8 mph SE6.1 kmh SE 7.6 mph12.2 kmh 29.92 in1013.2 mb 0.00 in0.0 mm 0.00 in0.0 mm 0.69 in17.5 mm
06:15 PM 73.8°F23.2°C 71.3°F21.8°C 92% 3.8 mph SE6.1 kmh SE 7.6 mph12.2 kmh 29.92 in1013.2 mb 0.00 in0.0 mm 0.00 in0.0 mm 0.69 in17.5 mm
06:30 PM 73.8°F23.2°C 71.3°F21.8°C 92% 3.8 mph SE6.1 kmh SE 7.6 mph12.2 kmh 29.92 in1013.2 mb 0.00 in0.0 mm 0.00 in0.0 mm 0.69 in17.5 mm
06:45 PM 73.8°F23.2°C 71.3°F21.8°C 92% 3.8 mph SE6.1 kmh SE 7.6 mph12.2 kmh 29.92 in1013.2 mb 0.00 in0.0 mm 0.00 in0.0 mm 0.69 in17.5 mm
07:00 PM 73.8°F23.2°C 71.3°F21.8°C 92% 3.8 mph SE6.1 kmh SE 7.6 mph12.2 kmh 29.92 in1013.2 mb 0.00 in0.0 mm 0.00 in0.0 mm 0.69 in17.5 mm
07:15 PM 73.8°F23.2°C 71.3°F21.8°C 92% 3.8 mph SE6.1 kmh SE 7.6 mph12.2 kmh 29.92 in1013.2 mb 0.00 in0.0 mm 0.00 in0.0 mm 0.69 in17.5 mm
07:30 PM 73.8°F23.2°C 71.3°F21.8°C 92% 3.8 mph SE6.1 kmh SE 7.6 mph12.2 kmh 29.92 in1013.2 mb 0.00 in0.0 mm 0.00 in0.0 mm 0.69 in17.5 mm
07:45 PM 73.8°F23.2°C 71.3°F21.8°C 92% 3.8 mph SE6.1 kmh SE 7.6 mph12.2 kmh 29.92 in1013.2 mb 0.00 in0.0 mm 0.00 in0.0 mm 0.69 in17.5 mm
08:00 PM 73.8°F23.2°C 71.3°F21.8°C 92% 3.8 mph SE6.1 kmh SE 7.6 mph12.2 kmh 29.92 in1013.2 mb 0.00 in0.0 mm 0.00 in0.0 mm 0.69 in17.5 mm
08:15 PM 73.8°F23.2°C 71.3°F21.8°C 92% 3.8 mph SE6.1 kmh SE 7.6 mph12.2 kmh 29.92 in1013.2 mb 0.00 in0.0 mm 0.00 in0.0 mm 0.69 in17.5 mm
08:30 PM 73.8°F23.2°C 71.3°F21.8°C 92% 3.8 mph SE6.1 kmh SE 7.6 mph12.2 kmh 29.92 in1013.2 mb 0.00 in0.0 mm 0.00 in0.0 mm 0.69 in17.5 mm
08:45 PM 73.8°F23.2°C 71.3°F21.8°C 92% 3.8 mph SE6.1 kmh SE 7.6 mph12.2 kmh 29.92 in1013.2 mb 0.00 in0.0 mm 0.00 in0.0 mm 0.69 in17.5 mm
09:00 PM 73.8°F23.2°C 71.3°F21.8°C 92% 3.8 mph SE6.1 kmh SE 7.6 mph12.2 kmh 29.92 in1013.2 mb 0.00 in0.0 mm 0.00 in0.0 mm 0.69 in17.5 mm
09:15 PM 73.8°F23.2°C 71.3°F21.8°C 92% 3.8 mph SE6.1 kmh SE 7.6 mph12.2 kmh 29.92 in1013.2 mb 0.00 in0.0 mm 0.00 in0.0 mm 0.69 in17.5 mm
09:30 PM 73.8°F23.2°C 71.3°F21.8°C 92% 3.8 mph SE6.1 kmh SE 7.6 mph12.2 kmh 29.92 in1013.2 mb 0.00 in0.0 mm 0.00 in0.0 mm 0.69 in17.5 mm
09:45 PM 73.8°F23.2°C 71.3°F21.8°C 92% 3.8 mph SE6.1 kmh SE 7.6 mph12.2 kmh 29.92 in1013.2 mb 0.00 in0.0 mm 0.00 in0.0 mm 0.69 in17.5 mm
10:00 PM 73.8°F23.2°C 71.3°F21.8°C 92% 3.8 mph SE6.1 kmh SE 7.6 mph12.2 kmh 29.92 in1013.2 mb 0.00 in0.0 mm 0.00 in0.0 mm 0.69 in17.5 mm
10:15 PM 73.8°F23.2°C 71.3°F21.8°C 92% 3.8 mph SE6.1 kmh SE 7.6 mph12.2 kmh 29.92 in1013.2 mb 0.00 in0.0 mm 0.00 in0.0 mm 0.69 in17.5 mm
10:30 PM 73.8°F23.2°C 71.3°F21.8°C 92% 3.8 mph SE6.1 kmh SE 7.6 mph12.2 kmh 29.92 in1013.2 mb 0.00 in0.0 mm 0.00 in0.0 mm 0.69 in17.5 mm
10:45 PM 73.8°F23.2°C 71.3°F21.8°C 92% 3.8 mph SE6.1 kmh SE 7.6 mph12.2 kmh 29.92 in1013.2 mb 0.00 in0.0 mm 0.00 in0.0 mm 0.69 in17.5 mm
11:00 PM 73.8°F23.2°C 71.3°F21.8°C 92% 3.8 mph SE6.1 kmh SE 7.6 mph12.2 kmh 29.92 in1013.2 mb 0.00 in0.0 mm 0.00 in0.0 mm 0.69 in17.5 mm
11:15 PM 73.8°F23.2°C 71.3°F21.8°C 92% 3.8 mph SE6.1 kmh SE 7.6 mph12.2 kmh 29.92 in1013.2 mb 0.00 in0.0 mm 0.00 in0.0 mm 0.69 in17.5 mm
11:30 PM 73.8°F23.2°C 71.3°F21.8°C 92% 3.8 mph SE6.1 kmh SE 7.6 mph12.2 kmh 29.92 in1013.2 mb 0.00 in0.0 mm 0.00 in0.0 mm 0.69 in17.5 mm
11:45 PM 73.8°F23.2°C 71.3°F21.8°C 92% 3.8 mph SE6.1 kmh SE 7.6 mph12.2 kmh 29.92 in1013.2 mb 0.00 in0.0 mm 0.00 in0.0 mm 0.69 in17.5 mm